sensor_id;sensor_type;location;lat;lon;timestamp;pressure;altitude;pressure_sealevel;temperature;humidity
37852;BME280;23691;52.486;4.650;2024-01-10T00:00:48;103336.97;;;-0.88;62.57
37852;BME280;23691;52.486;4.650;2024-01-10T00:03:14;103337.03;;;-0.91;62.84
37852;BME280;23691;52.486;4.650;2024-01-10T00:05:39;103335.34;;;-0.93;62.89
37852;BME280;23691;52.486;4.650;2024-01-10T00:08:07;103330.16;;;-0.98;63.00
37852;BME280;23691;52.486;4.650;2024-01-10T00:10:32;103324.00;;;-0.97;63.02
37852;BME280;23691;52.486;4.650;2024-01-10T00:12:58;103327.53;;;-0.98;63.15
37852;BME280;23691;52.486;4.650;2024-01-10T00:15:25;103323.97;;;-0.95;63.10
37852;BME280;23691;52.486;4.650;2024-01-10T00:17:51;103325.75;;;-0.96;62.87
37852;BME280;23691;52.486;4.650;2024-01-10T00:20:22;103331.00;;;-0.96;62.98
37852;BME280;23691;52.486;4.650;2024-01-10T00:22:57;103332.75;;;-0.96;63.18
37852;BME280;23691;52.486;4.650;2024-01-10T00:25:33;103320.53;;;-0.99;63.37
37852;BME280;23691;52.486;4.650;2024-01-10T00:27:58;103313.56;;;-1.01;63.11
37852;BME280;23691;52.486;4.650;2024-01-10T00:30:28;103317.13;;;-1.04;63.60
37852;BME280;23691;52.486;4.650;2024-01-10T00:32:54;103311.06;;;-1.08;63.68
37852;BME280;23691;52.486;4.650;2024-01-10T00:35:21;103306.69;;;-1.09;63.44
37852;BME280;23691;52.486;4.650;2024-01-10T00:37:47;103301.50;;;-1.10;63.38
37852;BME280;23691;52.486;4.650;2024-01-10T00:40:12;103311.13;;;-1.11;63.53
37852;BME280;23691;52.486;4.650;2024-01-10T00:42:41;103299.72;;;-1.11;63.72
37852;BME280;23691;52.486;4.650;2024-01-10T00:45:06;103302.44;;;-1.14;63.52
37852;BME280;23691;52.486;4.650;2024-01-10T00:47:32;103310.31;;;-1.14;63.64
37852;BME280;23691;52.486;4.650;2024-01-10T00:49:57;103306.81;;;-1.15;63.72
37852;BME280;23691;52.486;4.650;2024-01-10T00:52:23;103305.97;;;-1.17;63.48
37852;BME280;23691;52.486;4.650;2024-01-10T00:54:48;103309.50;;;-1.18;63.66
37852;BME280;23691;52.486;4.650;2024-01-10T00:57:13;103304.28;;;-1.19;63.30
37852;BME280;23691;52.486;4.650;2024-01-10T00:59:44;103303.38;;;-1.18;63.45
37852;BME280;23691;52.486;4.650;2024-01-10T01:02:10;103300.75;;;-1.18;63.62
37852;BME280;23691;52.486;4.650;2024-01-10T01:04:38;103304.28;;;-1.19;63.26
37852;BME280;23691;52.486;4.650;2024-01-10T01:07:03;103305.19;;;-1.22;63.74
37852;BME280;23691;52.486;4.650;2024-01-10T01:09:28;103310.44;;;-1.22;63.31
37852;BME280;23691;52.486;4.650;2024-01-10T01:11:53;103310.44;;;-1.22;63.69
37852;BME280;23691;52.486;4.650;2024-01-10T01:14:19;103293.00;;;-1.24;63.73
37852;BME280;23691;52.486;4.650;2024-01-10T01:16:44;103300.88;;;-1.24;63.79
37852;BME280;23691;52.486;4.650;2024-01-10T01:19:10;103294.75;;;-1.25;63.72
37852;BME280;23691;52.486;4.650;2024-01-10T01:21:37;103301.66;;;-1.19;63.74
37852;BME280;23691;52.486;4.650;2024-01-10T01:24:03;103303.41;;;-1.20;63.38
37852;BME280;23691;52.486;4.650;2024-01-10T01:26:28;103306.06;;;-1.21;63.85
37852;BME280;23691;52.486;4.650;2024-01-10T01:28:54;103293.84;;;-1.22;63.56
37852;BME280;23691;52.486;4.650;2024-01-10T01:31:19;103292.94;;;-1.21;63.62
37852;BME280;23691;52.486;4.650;2024-01-10T01:33:45;103307.81;;;-1.20;63.57
37852;BME280;23691;52.486;4.650;2024-01-10T01:36:10;103299.94;;;-1.20;63.57
37852;BME280;23691;52.486;4.650;2024-01-10T01:38:36;103302.59;;;-1.23;63.61
37852;BME280;23691;52.486;4.650;2024-01-10T01:41:01;103289.44;;;-1.23;63.40
37852;BME280;23691;52.486;4.650;2024-01-10T01:43:27;103299.09;;;-1.24;63.64
37852;BME280;23691;52.486;4.650;2024-01-10T01:45:53;103286.88;;;-1.25;63.35
37852;BME280;23691;52.486;4.650;2024-01-10T01:48:19;103285.13;;;-1.26;63.42
37852;BME280;23691;52.486;4.650;2024-01-10T01:50:47;103279.00;;;-1.26;63.33
37852;BME280;23691;52.486;4.650;2024-01-10T01:53:13;103286.91;;;-1.26;63.24
37852;BME280;23691;52.486;4.650;2024-01-10T01:55:40;103275.50;;;-1.25;63.62
37852;BME280;23691;52.486;4.650;2024-01-10T01:58:06;103278.16;;;-1.27;63.54
37852;BME280;23691;52.486;4.650;2024-01-10T02:00:32;103283.41;;;-1.28;63.47
37852;BME280;23691;52.486;4.650;2024-01-10T02:03:00;103275.59;;;-1.30;63.45
37852;BME280;23691;52.486;4.650;2024-01-10T02:05:26;103276.41;;;-1.28;63.27
37852;BME280;23691;52.486;4.650;2024-01-10T02:07:54;103268.53;;;-1.28;63.31
37852;BME280;23691;52.486;4.650;2024-01-10T02:10:20;103271.16;;;-1.28;63.36
37852;BME280;23691;52.486;4.650;2024-01-10T02:12:46;103265.94;;;-1.30;63.26
37852;BME280;23691;52.486;4.650;2024-01-10T02:15:14;103265.03;;;-1.27;63.12
37852;BME280;23691;52.486;4.650;2024-01-10T02:17:40;103259.78;;;-1.28;63.18
37852;BME280;23691;52.486;4.650;2024-01-10T02:20:12;103267.66;;;-1.28;62.95
37852;BME280;23691;52.486;4.650;2024-01-10T02:22:38;103262.47;;;-1.30;62.97
37852;BME280;23691;52.486;4.650;2024-01-10T02:25:10;103257.28;;;-1.35;62.83
37852;BME280;23691;52.486;4.650;2024-01-10T02:27:39;103262.56;;;-1.36;62.91
37852;BME280;23691;52.486;4.650;2024-01-10T02:30:05;103262.56;;;-1.36;62.86
37852;BME280;23691;52.486;4.650;2024-01-10T02:32:31;103258.16;;;-1.36;62.80
37852;BME280;23691;52.486;4.650;2024-01-10T02:35:00;103260.84;;;-1.37;62.61
37852;BME280;23691;52.486;4.650;2024-01-10T02:37:28;103255.59;;;-1.39;62.81
37852;BME280;23691;52.486;4.650;2024-01-10T02:39:56;103265.25;;;-1.41;62.63
37852;BME280;23691;52.486;4.650;2024-01-10T02:42:22;103254.81;;;-1.42;62.57
37852;BME280;23691;52.486;4.650;2024-01-10T02:44:50;103258.31;;;-1.43;63.01
37852;BME280;23691;52.486;4.650;2024-01-10T02:47:18;103257.44;;;-1.44;62.64
37852;BME280;23691;52.486;4.650;2024-01-10T02:49:49;103248.72;;;-1.44;62.79
37852;BME280;23691;52.486;4.650;2024-01-10T02:52:15;103254.84;;;-1.45;62.84
37852;BME280;23691;52.486;4.650;2024-01-10T02:54:40;103253.13;;;-1.46;62.64
37852;BME280;23691;52.486;4.650;2024-01-10T02:57:06;103246.97;;;-1.45;62.94
37852;BME280;23691;52.486;4.650;2024-01-10T02:59:34;103236.47;;;-1.45;63.09
37852;BME280;23691;52.486;4.650;2024-01-10T03:02:00;103241.75;;;-1.47;63.05
37852;BME280;23691;52.486;4.650;2024-01-10T03:04:28;103240.06;;;-1.49;63.13
37852;BME280;23691;52.486;4.650;2024-01-10T03:07:00;103234.81;;;-1.49;62.69
37852;BME280;23691;52.486;4.650;2024-01-10T03:09:26;103241.81;;;-1.50;63.10
37852;BME280;23691;52.486;4.650;2024-01-10T03:11:51;103236.59;;;-1.52;63.28
37852;BME280;23691;52.486;4.650;2024-01-10T03:14:19;103227.84;;;-1.52;62.97
37852;BME280;23691;52.486;4.650;2024-01-10T03:16:47;103231.34;;;-1.52;63.02
37852;BME280;23691;52.486;4.650;2024-01-10T03:19:12;103234.81;;;-1.49;62.80
37852;BME280;23691;52.486;4.650;2024-01-10T03:21:40;103232.19;;;-1.51;62.90
37852;BME280;23691;52.486;4.650;2024-01-10T03:24:11;103230.44;;;-1.51;63.12
37852;BME280;23691;52.486;4.650;2024-01-10T03:26:37;103237.44;;;-1.49;63.03
37852;BME280;23691;52.486;4.650;2024-01-10T03:29:05;103229.56;;;-1.51;62.89
37852;BME280;23691;52.486;4.650;2024-01-10T03:31:30;103229.56;;;-1.51;62.62
37852;BME280;23691;52.486;4.650;2024-01-10T03:33:57;103229.56;;;-1.51;62.55
37852;BME280;23691;52.486;4.650;2024-01-10T03:36:23;103233.06;;;-1.51;62.47
37852;BME280;23691;52.486;4.650;2024-01-10T03:38:49;103235.66;;;-1.49;62.23
37852;BME280;23691;52.486;4.650;2024-01-10T03:41:16;103225.16;;;-1.51;62.42
37852;BME280;23691;52.486;4.650;2024-01-10T03:43:41;103227.81;;;-1.51;62.57
37852;BME280;23691;52.486;4.650;2024-01-10T03:46:07;103221.69;;;-1.51;62.38
37852;BME280;23691;52.486;4.650;2024-01-10T03:48:32;103226.06;;;-1.50;62.74
37852;BME280;23691;52.486;4.650;2024-01-10T03:50:57;103232.19;;;-1.49;62.19
37852;BME280;23691;52.486;4.650;2024-01-10T03:53:26;103234.81;;;-1.51;62.11
37852;BME280;23691;52.486;4.650;2024-01-10T03:55:51;103232.19;;;-1.49;62.21
37852;BME280;23691;52.486;4.650;2024-01-10T03:58:17;103225.16;;;-1.49;61.89
37852;BME280;23691;52.486;4.650;2024-01-10T04:00:44;103226.88;;;-1.48;61.99
37852;BME280;23691;52.486;4.650;2024-01-10T04:03:30;103221.63;;;-1.48;62.11
37852;BME280;23691;52.486;4.650;2024-01-10T04:05:59;103219.84;;;-1.46;62.38
37852;BME280;23691;52.486;4.650;2024-01-10T04:11:18;103223.31;;;-1.45;62.02
37852;BME280;23691;52.486;4.650;2024-01-10T04:13:43;103223.31;;;-1.45;61.81
37852;BME280;23691;52.486;4.650;2024-01-10T04:16:12;103222.47;;;-1.46;61.89
37852;BME280;23691;52.486;4.650;2024-01-10T04:18:40;103225.06;;;-1.44;61.69
37852;BME280;23691;52.486;4.650;2024-01-10T04:21:05;103231.16;;;-1.42;61.34
37852;BME280;23691;52.486;4.650;2024-01-10T04:23:32;103232.03;;;-1.42;61.39
37852;BME280;23691;52.486;4.650;2024-01-10T04:25:59;103225.94;;;-1.45;61.04
37852;BME280;23691;52.486;4.650;2024-01-10T04:28:27;103217.25;;;-1.47;60.99
37852;BME280;23691;52.486;4.650;2024-01-10T04:30:52;103224.31;;;-1.51;61.27
37852;BME280;23691;52.486;4.650;2024-01-10T04:33:18;103226.09;;;-1.53;61.14
37852;BME280;23691;52.486;4.650;2024-01-10T04:35:46;103223.53;;;-1.55;61.19
37852;BME280;23691;52.486;4.650;2024-01-10T04:38:11;103217.44;;;-1.57;61.04
37852;BME280;23691;52.486;4.650;2024-01-10T04:40:45;103209.56;;;-1.58;60.63
37852;BME280;23691;52.486;4.650;2024-01-10T04:43:10;103206.94;;;-1.58;60.71
37852;BME280;23691;52.486;4.650;2024-01-10T04:45:35;103218.31;;;-1.58;60.55
37852;BME280;23691;52.486;4.650;2024-01-10T04:48:01;103210.44;;;-1.58;60.65
37852;BME280;23691;52.486;4.650;2024-01-10T04:50:26;103212.19;;;-1.58;60.73
37852;BME280;23691;52.486;4.650;2024-01-10T04:52:51;103211.34;;;-1.59;60.08
37852;BME280;23691;52.486;4.650;2024-01-10T04:55:17;103207.88;;;-1.61;60.11
37852;BME280;23691;52.486;4.650;2024-01-10T04:57:45;103203.53;;;-1.62;60.06
37852;BME280;23691;52.486;4.650;2024-01-10T05:00:10;103208.78;;;-1.62;60.11
37852;BME280;23691;52.486;4.650;2024-01-10T05:02:36;103208.78;;;-1.63;60.15
37852;BME280;23691;52.486;4.650;2024-01-10T05:05:04;103207.91;;;-1.62;59.51
37852;BME280;23691;52.486;4.650;2024-01-10T05:07:35;103202.69;;;-1.65;59.64
37852;BME280;23691;52.486;4.650;2024-01-10T05:10:00;103201.84;;;-1.66;59.58
37852;BME280;23691;52.486;4.650;2024-01-10T05:12:26;103202.59;;;-1.59;59.34
37852;BME280;23691;52.486;4.650;2024-01-10T05:14:51;103202.69;;;-1.65;59.49
37852;BME280;23691;52.486;4.650;2024-01-10T05:17:24;103204.53;;;-1.69;59.23
37852;BME280;23691;52.486;4.650;2024-01-10T05:19:53;103205.53;;;-1.76;59.45
37852;BME280;23691;52.486;4.650;2024-01-10T05:22:29;103200.63;;;-1.48;58.92
37852;BME280;23691;52.486;4.650;2024-01-10T05:24:56;103200.59;;;-1.45;58.45
37852;BME280;23691;52.486;4.650;2024-01-10T05:27:24;103200.69;;;-1.51;58.40
37852;BME280;23691;52.486;4.650;2024-01-10T05:29:49;103196.53;;;-1.63;58.67
37852;BME280;23691;52.486;4.650;2024-01-10T05:32:14;103194.13;;;-1.75;59.18
37852;BME280;23691;52.486;4.650;2024-01-10T05:34:40;103188.00;;;-1.74;59.35
37852;BME280;23691;52.486;4.650;2024-01-10T05:37:05;103194.13;;;-1.75;59.54
37852;BME280;23691;52.486;4.650;2024-01-10T05:39:34;103190.63;;;-1.76;59.10
37852;BME280;23691;52.486;4.650;2024-01-10T05:42:02;103190.63;;;-1.76;59.12
37852;BME280;23691;52.486;4.650;2024-01-10T05:44:28;103187.16;;;-1.76;59.47
37852;BME280;23691;52.486;4.650;2024-01-10T05:46:53;103187.13;;;-1.75;59.54
37852;BME280;23691;52.486;4.650;2024-01-10T05:49:18;103189.75;;;-1.75;59.65
37852;BME280;23691;52.486;4.650;2024-01-10T05:51:44;103182.69;;;-1.71;59.25
37852;BME280;23691;52.486;4.650;2024-01-10T05:54:09;103177.50;;;-1.74;59.01
37852;BME280;23691;52.486;4.650;2024-01-10T05:56:34;103186.31;;;-1.78;59.15
37852;BME280;23691;52.486;4.650;2024-01-10T05:59:01;103186.28;;;-1.77;59.24
37852;BME280;23691;52.486;4.650;2024-01-10T06:01:50;103192.09;;;-1.59;59.09
37852;BME280;23691;52.486;4.650;2024-01-10T06:04:36;103180.91;;;-1.70;59.23
37852;BME280;23691;52.486;4.650;2024-01-10T06:07:04;103178.22;;;-1.67;59.09
37852;BME280;23691;52.486;4.650;2024-01-10T06:09:30;103177.41;;;-1.69;59.54
37852;BME280;23691;52.486;4.650;2024-01-10T06:11:55;103167.84;;;-1.74;59.48
37852;BME280;23691;52.486;4.650;2024-01-10T06:14:21;103180.06;;;-1.73;59.81
37852;BME280;23691;52.486;4.650;2024-01-10T06:16:46;103171.25;;;-1.68;59.77
37852;BME280;23691;52.486;4.650;2024-01-10T06:19:11;103166.09;;;-1.73;59.50
37852;BME280;23691;52.486;4.650;2024-01-10T06:21:37;103164.31;;;-1.73;59.55
37852;BME280;23691;52.486;4.650;2024-01-10T06:24:02;103161.75;;;-1.74;59.74
37852;BME280;23691;52.486;4.650;2024-01-10T06:26:27;103157.34;;;-1.74;60.04
37852;BME280;23691;52.486;4.650;2024-01-10T06:28:53;103160.78;;;-1.70;59.90
37852;BME280;23691;52.486;4.650;2024-01-10T06:31:18;103156.44;;;-1.73;59.77
37852;BME280;23691;52.486;4.650;2024-01-10T06:33:43;103161.75;;;-1.74;60.16
37852;BME280;23691;52.486;4.650;2024-01-10T06:36:08;103157.34;;;-1.74;59.73
37852;BME280;23691;52.486;4.650;2024-01-10T06:38:34;103150.41;;;-1.76;60.27
37852;BME280;23691;52.486;4.650;2024-01-10T06:40:59;103156.50;;;-1.74;60.07
37852;BME280;23691;52.486;4.650;2024-01-10T06:43:24;103166.94;;;-1.73;60.31
37852;BME280;23691;52.486;4.650;2024-01-10T06:45:50;103163.53;;;-1.76;60.04
37852;BME280;23691;52.486;4.650;2024-01-10T06:48:15;103174.81;;;-1.73;60.32
37852;BME280;23691;52.486;4.650;2024-01-10T06:50:42;103167.00;;;-1.74;60.35
37852;BME280;23691;52.486;4.650;2024-01-10T06:53:12;103171.34;;;-1.73;60.50
37852;BME280;23691;52.486;4.650;2024-01-10T06:55:37;103171.38;;;-1.75;60.44
37852;BME280;23691;52.486;4.650;2024-01-10T06:58:03;103175.72;;;-1.74;60.28
37852;BME280;23691;52.486;4.650;2024-01-10T07:00:32;103175.59;;;-1.67;60.37
37852;BME280;23691;52.486;4.650;2024-01-10T07:03:06;103172.97;;;-1.66;60.08
37852;BME280;23691;52.486;4.650;2024-01-10T07:05:31;103165.03;;;-1.63;60.01
37852;BME280;23691;52.486;4.650;2024-01-10T07:07:57;103163.22;;;-1.61;60.16
37852;BME280;23691;52.486;4.650;2024-01-10T07:10:23;103163.28;;;-1.62;60.44
37852;BME280;23691;52.486;4.650;2024-01-10T07:12:53;103173.88;;;-1.68;60.05
37852;BME280;23691;52.486;4.650;2024-01-10T07:15:19;103173.03;;;-1.69;60.08
37852;BME280;23691;52.486;4.650;2024-01-10T07:17:45;103176.53;;;-1.70;59.88
37852;BME280;23691;52.486;4.650;2024-01-10T07:20:10;103174.81;;;-1.73;60.03
37852;BME280;23691;52.486;4.650;2024-01-10T07:22:39;103169.63;;;-1.74;60.21
37852;BME280;23691;52.486;4.650;2024-01-10T07:25:07;103169.63;;;-1.76;60.05
37852;BME280;23691;52.486;4.650;2024-01-10T07:27:32;103164.44;;;-1.77;60.29
37852;BME280;23691;52.486;4.650;2024-01-10T07:29:57;103169.63;;;-1.76;60.21
37852;BME280;23691;52.486;4.650;2024-01-10T07:32:23;103178.34;;;-1.74;60.12
37852;BME280;23691;52.486;4.650;2024-01-10T07:34:48;103178.34;;;-1.74;60.12
37852;BME280;23691;52.486;4.650;2024-01-10T07:37:13;103175.66;;;-1.69;60.20
37852;BME280;23691;52.486;4.650;2024-01-10T07:39:41;103177.38;;;-1.68;60.30
37852;BME280;23691;52.486;4.650;2024-01-10T07:42:07;103175.59;;;-1.66;59.91
37852;BME280;23691;52.486;4.650;2024-01-10T07:44:32;103177.34;;;-1.65;60.00
37852;BME280;23691;52.486;4.650;2024-01-10T07:46:58;103169.50;;;-1.68;59.83
37852;BME280;23691;52.486;4.650;2024-01-10T07:49:23;103176.50;;;-1.67;59.85
37852;BME280;23691;52.486;4.650;2024-01-10T07:51:49;103171.25;;;-1.68;60.07
37852;BME280;23691;52.486;4.650;2024-01-10T07:54:14;103165.06;;;-1.64;59.81
37852;BME280;23691;52.486;4.650;2024-01-10T07:56:39;103162.38;;;-1.61;59.98
37852;BME280;23691;52.486;4.650;2024-01-10T07:59:05;103167.56;;;-1.58;59.57
37852;BME280;23691;52.486;4.650;2024-01-10T08:01:30;103165.78;;;-1.58;59.80
37852;BME280;23691;52.486;4.650;2024-01-10T08:03:56;103173.63;;;-1.55;59.59
37852;BME280;23691;52.486;4.650;2024-01-10T08:06:21;103177.97;;;-1.54;59.58
37852;BME280;23691;52.486;4.650;2024-01-10T08:08:52;103178.81;;;-1.52;59.39
37852;BME280;23691;52.486;4.650;2024-01-10T08:11:24;103171.81;;;-1.51;59.84
37852;BME280;23691;52.486;4.650;2024-01-10T08:13:49;103176.97;;;-1.46;59.46
37852;BME280;23691;52.486;4.650;2024-01-10T08:16:16;103183.09;;;-1.46;59.47
37852;BME280;23691;52.486;4.650;2024-01-10T08:18:43;103189.16;;;-1.44;59.77
37852;BME280;23691;52.486;4.650;2024-01-10T08:21:08;103199.66;;;-1.42;59.55
37852;BME280;23691;52.486;4.650;2024-01-10T08:23:33;103195.28;;;-1.43;59.57
37852;BME280;23691;52.486;4.650;2024-01-10T08:25:59;103193.50;;;-1.41;59.24
37852;BME280;23691;52.486;4.650;2024-01-10T08:28:24;103196.09;;;-1.40;59.24
37852;BME280;23691;52.486;4.650;2024-01-10T08:30:51;103199.50;;;-1.35;59.42
37852;BME280;23691;52.486;4.650;2024-01-10T08:33:16;103200.34;;;-1.33;59.02
37852;BME280;23691;52.486;4.650;2024-01-10T08:35:43;103203.78;;;-1.31;59.24
37852;BME280;23691;52.486;4.650;2024-01-10T08:38:08;103201.13;;;-1.29;59.54
37852;BME280;23691;52.486;4.650;2024-01-10T08:40:33;103189.69;;;-1.26;59.51
37852;BME280;23691;52.486;4.650;2024-01-10T08:42:58;103189.69;;;-1.25;59.44
37852;BME280;23691;52.486;4.650;2024-01-10T08:45:24;103204.53;;;-1.22;59.51
37852;BME280;23691;52.486;4.650;2024-01-10T08:47:49;103198.34;;;-1.20;59.75
37852;BME280;23691;52.486;4.650;2024-01-10T08:50:15;103194.72;;;-1.16;59.71
37852;BME280;23691;52.486;4.650;2024-01-10T08:52:43;103191.22;;;-1.13;59.59
37852;BME280;23691;52.486;4.650;2024-01-10T08:55:18;103185.91;;;-1.12;59.38
37852;BME280;23691;52.486;4.650;2024-01-10T08:57:43;103184.94;;;-1.08;59.35
37852;BME280;23691;52.486;4.650;2024-01-10T09:00:09;103184.84;;;-1.03;59.48
37852;BME280;23691;52.486;4.650;2024-01-10T09:02:38;103183.09;;;-1.02;59.16
37852;BME280;23691;52.486;4.650;2024-01-10T09:05:03;103176.91;;;-1.00;59.18
37852;BME280;23691;52.486;4.650;2024-01-10T09:07:29;103176.84;;;-0.97;58.91
37852;BME280;23691;52.486;4.650;2024-01-10T09:09:55;103184.63;;;-0.94;58.91
37852;BME280;23691;52.486;4.650;2024-01-10T09:12:20;103185.03;;;-1.11;59.26
37852;BME280;23691;52.486;4.650;2024-01-10T09:14:45;103191.94;;;-1.06;59.16
37852;BME280;23691;52.486;4.650;2024-01-10T09:17:11;103204.13;;;-1.02;59.66
37852;BME280;23691;52.486;4.650;2024-01-10T09:19:36;103199.63;;;-0.97;59.59
37852;BME280;23691;52.486;4.650;2024-01-10T09:22:01;103203.00;;;-0.92;59.49
37852;BME280;23691;52.486;4.650;2024-01-10T09:24:26;103197.66;;;-0.88;59.45
37852;BME280;23691;52.486;4.650;2024-01-10T09:26:52;103194.88;;;-0.80;59.34
37852;BME280;23691;52.486;4.650;2024-01-10T09:29:18;103198.25;;;-0.73;59.18
37852;BME280;23691;52.486;4.650;2024-01-10T09:31:43;103184.00;;;-0.65;58.80
37852;BME280;23691;52.486;4.650;2024-01-10T09:34:09;103189.31;;;-0.66;58.71
37852;BME280;23691;52.486;4.650;2024-01-10T09:36:34;103197.09;;;-0.61;58.40
37852;BME280;23691;52.486;4.650;2024-01-10T09:38:59;103188.19;;;-0.56;58.60
37852;BME280;23691;52.486;4.650;2024-01-10T09:41:36;103186.34;;;-0.52;58.25
37852;BME280;23691;52.486;4.650;2024-01-10T09:44:06;103184.53;;;-0.49;58.52
37852;BME280;23691;52.486;4.650;2024-01-10T09:46:31;103172.09;;;-0.42;57.88
37852;BME280;23691;52.486;4.650;2024-01-10T09:48:58;103174.59;;;-0.37;57.68
37852;BME280;23691;52.486;4.650;2024-01-10T09:51:23;103176.31;;;-0.35;57.59
37852;BME280;23691;52.486;4.650;2024-01-10T09:53:50;103164.81;;;-0.31;57.50
37852;BME280;23691;52.486;4.650;2024-01-10T09:56:16;103167.22;;;-0.22;57.38
37852;BME280;23691;52.486;4.650;2024-01-10T09:58:45;103159.28;;;-0.20;57.36
37852;BME280;23691;52.486;4.650;2024-01-10T10:01:13;103163.56;;;-0.16;56.95
37852;BME280;23691;52.486;4.650;2024-01-10T10:03:39;103158.34;;;-0.17;57.02
37852;BME280;23691;52.486;4.650;2024-01-10T10:06:07;103167.03;;;-0.14;56.96
37852;BME280;23691;52.486;4.650;2024-01-10T10:08:33;103179.13;;;-0.07;56.70
37852;BME280;23691;52.486;4.650;2024-01-10T10:10:58;103179.72;;;0.05;56.23
37852;BME280;23691;52.486;4.650;2024-01-10T10:13:27;103184.78;;;0.12;56.21
37852;BME280;23691;52.486;4.650;2024-01-10T10:18:30;103177.44;;;0.25;55.70
37852;BME280;23691;52.486;4.650;2024-01-10T10:21:06;103174.72;;;0.28;55.57
37852;BME280;23691;52.486;4.650;2024-01-10T10:23:32;103170.28;;;0.30;55.45
37852;BME280;23691;52.486;4.650;2024-01-10T10:25:57;103169.28;;;0.34;55.07
37852;BME280;23691;52.486;4.650;2024-01-10T10:28:27;103172.72;;;0.38;55.16
37852;BME280;23691;52.486;4.650;2024-01-10T10:30:53;103173.44;;;0.43;54.87
37852;BME280;23691;52.486;4.650;2024-01-10T10:33:19;103182.91;;;0.50;54.80
37852;BME280;23691;52.486;4.650;2024-01-10T10:35:46;103180.91;;;0.58;54.92
37852;BME280;23691;52.486;4.650;2024-01-10T10:38:11;103179.09;;;0.60;54.34
37852;BME280;23691;52.486;4.650;2024-01-10T10:40:36;103164.03;;;0.66;53.65
37852;BME280;23691;52.486;4.650;2024-01-10T10:43:03;103167.59;;;0.64;53.57
37852;BME280;23691;52.486;4.650;2024-01-10T10:45:29;103170.13;;;0.68;53.44
37852;BME280;23691;52.486;4.650;2024-01-10T10:47:56;103170.03;;;0.71;53.00
37852;BME280;23691;52.486;4.650;2024-01-10T10:50:22;103163.81;;;0.73;52.42
37852;BME280;23691;52.486;4.650;2024-01-10T10:52:48;103164.63;;;0.75;52.39
37852;BME280;23691;52.486;4.650;2024-01-10T10:55:19;103165.44;;;0.79;52.27
37852;BME280;23691;52.486;4.650;2024-01-10T10:57:47;103156.50;;;0.83;52.21
37852;BME280;23691;52.486;4.650;2024-01-10T11:00:22;103172.22;;;0.86;51.99
37852;BME280;23691;52.486;4.650;2024-01-10T11:02:52;103171.19;;;0.92;51.88
37852;BME280;23691;52.486;4.650;2024-01-10T11:05:21;103169.44;;;0.91;50.98
37852;BME280;23691;52.486;4.650;2024-01-10T11:07:54;103164.19;;;0.91;51.05
37852;BME280;23691;52.486;4.650;2024-01-10T11:10:31;103167.59;;;0.94;51.17
37852;BME280;23691;52.486;4.650;2024-01-10T11:21:45;103152.38;;;1.04;50.30
37852;BME280;23691;52.486;4.650;2024-01-10T11:24:02;103151.47;;;1.05;50.45
37852;BME280;23691;52.486;4.650;2024-01-10T11:26:28;103158.41;;;1.07;50.48
37852;BME280;23691;52.486;4.650;2024-01-10T11:28:53;103151.28;;;1.11;50.65
37852;BME280;23691;52.486;4.650;2024-01-10T11:31:28;103153.78;;;1.16;50.81
37852;BME280;23691;52.486;4.650;2024-01-10T11:33:57;103163.28;;;1.21;50.66
37852;BME280;23691;52.486;4.650;2024-01-10T11:36:23;103162.34;;;1.22;50.75
37852;BME280;23691;52.486;4.650;2024-01-10T11:41:30;103150.59;;;1.33;50.19
37852;BME280;23691;52.486;4.650;2024-01-10T11:46:33;103154.88;;;1.37;49.86
37852;BME280;23691;52.486;4.650;2024-01-10T11:49:00;103151.41;;;1.35;49.89
37852;BME280;23691;52.486;4.650;2024-01-10T11:51:26;103139.06;;;1.37;49.42
37852;BME280;23691;52.486;4.650;2024-01-10T11:53:51;103149.72;;;1.34;49.23
37852;BME280;23691;52.486;4.650;2024-01-10T11:56:21;103138.38;;;1.30;49.55
37852;BME280;23691;52.486;4.650;2024-01-10T11:59:03;103140.22;;;1.28;49.41
37852;BME280;23691;52.486;4.650;2024-01-10T12:01:39;103130.53;;;1.28;49.63
37852;BME280;23691;52.486;4.650;2024-01-10T12:04:07;103139.25;;;1.31;50.01
37852;BME280;23691;52.486;4.650;2024-01-10T12:06:36;103134.94;;;1.28;49.28
37852;BME280;23691;52.486;4.650;2024-01-10T12:09:01;103132.34;;;1.26;49.35
37852;BME280;23691;52.486;4.650;2024-01-10T12:11:40;103132.34;;;1.26;49.67
37852;BME280;23691;52.486;4.650;2024-01-10T12:14:26;103142.91;;;1.26;49.98
37852;BME280;23691;52.486;4.650;2024-01-10T12:16:52;103151.66;;;1.27;49.73
37852;BME280;23691;52.486;4.650;2024-01-10T12:22:26;103133.34;;;1.22;49.49
37852;BME280;23691;52.486;4.650;2024-01-10T12:24:51;103142.22;;;1.20;49.86
37852;BME280;23691;52.486;4.650;2024-01-10T12:27:17;103135.34;;;1.16;49.45
37852;BME280;23691;52.486;4.650;2024-01-10T12:29:47;103124.81;;;1.14;49.25
37852;BME280;23691;52.486;4.650;2024-01-10T12:32:16;103113.22;;;1.20;49.39
37852;BME280;23691;52.486;4.650;2024-01-10T12:35:23;103117.41;;;1.25;49.55
37852;BME280;23691;52.486;4.650;2024-01-10T12:38:10;103120.88;;;1.27;49.63
37852;BME280;23691;52.486;4.650;2024-01-10T12:40:38;103115.56;;;1.29;49.77
37852;BME280;23691;52.486;4.650;2024-01-10T12:46:11;103106.88;;;1.25;49.76
37852;BME280;23691;52.486;4.650;2024-01-10T13:00:12;103113.06;;;1.24;50.21
37852;BME280;23691;52.486;4.650;2024-01-10T13:02:48;103097.22;;;1.26;50.42
37852;BME280;23691;52.486;4.650;2024-01-10T13:05:20;103099.03;;;1.24;50.15
37852;BME280;23691;52.486;4.650;2024-01-10T13:07:46;103093.78;;;1.22;50.47
37852;BME280;23691;52.486;4.650;2024-01-10T13:10:24;103090.19;;;1.25;50.70
37852;BME280;23691;52.486;4.650;2024-01-10T13:12:57;103082.19;;;1.28;50.56
37852;BME280;23691;52.486;4.650;2024-01-10T13:15:23;103087.38;;;1.31;50.99
37852;BME280;23691;52.486;4.650;2024-01-10T13:17:55;103089.94;;;1.33;50.67
37852;BME280;23691;52.486;4.650;2024-01-10T13:20:33;103080.28;;;1.33;50.52
37852;BME280;23691;52.486;4.650;2024-01-10T13:23:07;103078.59;;;1.31;50.86
37852;BME280;23691;52.486;4.650;2024-01-10T13:25:35;103074.22;;;1.29;50.78
37852;BME280;23691;52.486;4.650;2024-01-10T13:28:05;103068.84;;;1.33;50.79
37852;BME280;23691;52.486;4.650;2024-01-10T13:30:35;103067.94;;;1.34;50.96